EGBJ/GLO METAR and TAF weather

Enter ICAO airport designator
Station Type Date Time Source
EGBJ METAR 2021/05/11 16:20 UTC NOAA

EGBJ 111620Z 16014KT 130V190 9999 VCSH FEW025CB FEW040 15/03 Q1004


Station Type Date Time Source
EGBJ Decoded METAR 2021/05/11 16:20 UTC NOAA

Staverton Private , United Kingdom (EGBJ) 51-54N 002-10W
May 11, 2021 - 12:20 PM EDT / 2021.05.11 1620 UTC
Wind: from the SSE (160 degrees) at 16 MPH (14 KT) (direction variable):0
Visibility: greater than 7 mile(s):0
Sky conditions: mostly clear
Weather: showers in the vicinity; Cumulonimbus clouds observed
Temperature: 59 F (15 C)
Dew Point: 37 F (3 C)
Relative Humidity: 44%
Pressure (altimeter): 29.65 in. Hg (1004 hPa)
ob: EGBJ 111620Z 16014KT 130V190 9999 VCSH FEW025CB FEW040 15/03 Q1004
cycle: 16

Station Type Date Time Source
EGBJ TAF UTC NOAA

Error!

Example: see airport list